sensor_id;sensor_type;location;lat;lon;timestamp;pressure;altitude;pressure_sealevel;temperature;humidity
63556;BME280;49700;48.072;7.800;2024-01-30T00:00:08;100904.31;;;3.44;nan
63556;BME280;49700;48.072;7.800;2024-01-30T00:02:34;100896.56;;;3.39;nan
63556;BME280;49700;48.072;7.800;2024-01-30T00:04:59;100901.81;;;3.36;nan
63556;BME280;49700;48.072;7.800;2024-01-30T00:07:24;100895.81;;;3.32;nan
63556;BME280;49700;48.072;7.800;2024-01-30T00:09:50;100889.84;;;3.24;nan
63556;BME280;49700;48.072;7.800;2024-01-30T00:12:16;100899.41;;;3.22;nan
63556;BME280;49700;48.072;7.800;2024-01-30T00:14:42;100898.59;;;3.17;nan
63556;BME280;49700;48.072;7.800;2024-01-30T00:17:09;100899.50;;;3.13;nan
63556;BME280;49700;48.072;7.800;2024-01-30T00:19:35;100896.09;;;3.11;nan
63556;BME280;49700;48.072;7.800;2024-01-30T00:22:00;100896.94;;;3.10;nan
63556;BME280;49700;48.072;7.800;2024-01-30T00:24:26;100893.53;;;3.06;nan
63556;BME280;49700;48.072;7.800;2024-01-30T00:26:51;100897.88;;;3.06;nan
63556;BME280;49700;48.072;7.800;2024-01-30T00:29:17;100895.28;;;3.04;nan
63556;BME280;49700;48.072;7.800;2024-01-30T00:31:45;100897.97;;;2.97;nan
63556;BME280;49700;48.072;7.800;2024-01-30T00:34:10;100908.47;;;2.89;nan
63556;BME280;49700;48.072;7.800;2024-01-30T00:36:37;100908.50;;;2.83;nan
63556;BME280;49700;48.072;7.800;2024-01-30T00:39:02;100906.75;;;2.83;nan
63556;BME280;49700;48.072;7.800;2024-01-30T00:41:31;100903.34;;;2.81;nan
63556;BME280;49700;48.072;7.800;2024-01-30T00:43:57;100909.44;;;2.77;nan
63556;BME280;49700;48.072;7.800;2024-01-30T00:46:22;100904.25;;;2.79;nan
63556;BME280;49700;48.072;7.800;2024-01-30T00:48:47;100905.09;;;2.78;nan
63556;BME280;49700;48.072;7.800;2024-01-30T00:51:13;100901.66;;;2.77;nan
63556;BME280;49700;48.072;7.800;2024-01-30T00:53:38;100905.13;;;2.76;nan
63556;BME280;49700;48.072;7.800;2024-01-30T00:56:04;100899.94;;;2.75;nan
63556;BME280;49700;48.072;7.800;2024-01-30T00:58:32;100897.38;;;2.73;nan
63556;BME280;49700;48.072;7.800;2024-01-30T01:00:58;100907.78;;;2.70;nan
63556;BME280;49700;48.072;7.800;2024-01-30T01:03:24;100906.09;;;2.68;nan
63556;BME280;49700;48.072;7.800;2024-01-30T01:05:49;100900.06;;;2.65;nan
63556;BME280;49700;48.072;7.800;2024-01-30T01:08:14;100903.50;;;2.66;nan
63556;BME280;49700;48.072;7.800;2024-01-30T01:10:40;100906.94;;;2.66;nan
63556;BME280;49700;48.072;7.800;2024-01-30T01:13:05;100905.22;;;2.67;nan
63556;BME280;49700;48.072;7.800;2024-01-30T01:15:31;100903.53;;;2.61;nan
63556;BME280;49700;48.072;7.800;2024-01-30T01:17:56;100906.16;;;2.60;nan
63556;BME280;49700;48.072;7.800;2024-01-30T01:20:22;100911.38;;;2.57;nan
63556;BME280;49700;48.072;7.800;2024-01-30T01:22:47;100908.78;;;2.57;nan
63556;BME280;49700;48.072;7.800;2024-01-30T01:25:13;100903.59;;;2.57;nan
63556;BME280;49700;48.072;7.800;2024-01-30T01:27:38;100911.38;;;2.55;nan
63556;BME280;49700;48.072;7.800;2024-01-30T01:30:08;100907.06;;;2.57;nan
63556;BME280;49700;48.072;7.800;2024-01-30T01:32:34;100907.03;;;2.60;nan
63556;BME280;49700;48.072;7.800;2024-01-30T01:35:00;100908.72;;;2.63;nan
63556;BME280;49700;48.072;7.800;2024-01-30T01:37:25;100901.78;;;2.65;nan
63556;BME280;49700;48.072;7.800;2024-01-30T01:39:52;100897.47;;;2.64;nan
63556;BME280;49700;48.072;7.800;2024-01-30T01:42:17;100898.34;;;2.63;nan
63556;BME280;49700;48.072;7.800;2024-01-30T01:44:43;100902.66;;;2.64;nan
63556;BME280;49700;48.072;7.800;2024-01-30T01:47:08;100887.94;;;2.64;nan
63556;BME280;49700;48.072;7.800;2024-01-30T01:49:34;100892.34;;;2.58;nan
63556;BME280;49700;48.072;7.800;2024-01-30T01:52:00;100886.34;;;2.53;nan
63556;BME280;49700;48.072;7.800;2024-01-30T01:54:26;100889.78;;;2.55;nan
63556;BME280;49700;48.072;7.800;2024-01-30T01:56:53;100891.50;;;2.56;nan
63556;BME280;49700;48.072;7.800;2024-01-30T01:59:19;100891.47;;;2.59;nan
63556;BME280;49700;48.072;7.800;2024-01-30T02:01:46;100891.47;;;2.62;nan
63556;BME280;49700;48.072;7.800;2024-01-30T02:04:14;100887.09;;;2.64;nan
63556;BME280;49700;48.072;7.800;2024-01-30T02:06:39;100891.41;;;2.65;nan
63556;BME280;49700;48.072;7.800;2024-01-30T02:09:05;100891.41;;;2.65;nan
63556;BME280;49700;48.072;7.800;2024-01-30T02:11:31;100895.72;;;2.64;nan
63556;BME280;49700;48.072;7.800;2024-01-30T02:13:57;100881.09;;;2.62;nan
63556;BME280;49700;48.072;7.800;2024-01-30T02:16:27;100881.94;;;2.61;nan
63556;BME280;49700;48.072;7.800;2024-01-30T02:18:53;100882.84;;;2.57;nan
63556;BME280;49700;48.072;7.800;2024-01-30T02:21:24;100881.97;;;2.56;nan
63556;BME280;49700;48.072;7.800;2024-01-30T02:23:51;100874.22;;;2.55;nan
63556;BME280;49700;48.072;7.800;2024-01-30T02:26:17;100885.44;;;2.55;nan
63556;BME280;49700;48.072;7.800;2024-01-30T02:28:43;100890.63;;;2.57;nan
63556;BME280;49700;48.072;7.800;2024-01-30T02:31:08;100886.28;;;2.59;nan
63556;BME280;49700;48.072;7.800;2024-01-30T02:33:34;100886.28;;;2.60;nan
63556;BME280;49700;48.072;7.800;2024-01-30T02:35:59;100882.78;;;2.61;nan
63556;BME280;49700;48.072;7.800;2024-01-30T02:38:25;100884.50;;;2.64;nan
63556;BME280;49700;48.072;7.800;2024-01-30T02:40:52;100875.00;;;2.61;nan
63556;BME280;49700;48.072;7.800;2024-01-30T02:43:17;100879.38;;;2.58;nan
63556;BME280;49700;48.072;7.800;2024-01-30T02:45:43;100874.19;;;2.58;nan
63556;BME280;49700;48.072;7.800;2024-01-30T02:48:08;100888.03;;;2.57;nan
63556;BME280;49700;48.072;7.800;2024-01-30T02:50:34;100881.09;;;2.59;nan
63556;BME280;49700;48.072;7.800;2024-01-30T02:53:00;100872.47;;;2.57;nan
63556;BME280;49700;48.072;7.800;2024-01-30T02:55:26;100875.97;;;2.53;nan
63556;BME280;49700;48.072;7.800;2024-01-30T02:57:51;100879.47;;;2.49;nan
63556;BME280;49700;48.072;7.800;2024-01-30T03:00:16;100882.16;;;2.39;nan
63556;BME280;49700;48.072;7.800;2024-01-30T03:02:42;100876.19;;;2.31;nan
63556;BME280;49700;48.072;7.800;2024-01-30T03:05:08;100875.34;;;2.26;nan
63556;BME280;49700;48.072;7.800;2024-01-30T03:07:33;100879.69;;;2.24;nan
63556;BME280;49700;48.072;7.800;2024-01-30T03:09:59;100888.34;;;2.23;nan
63556;BME280;49700;48.072;7.800;2024-01-30T03:12:24;100885.75;;;2.23;nan
63556;BME280;49700;48.072;7.800;2024-01-30T03:14:50;100884.91;;;2.21;nan
63556;BME280;49700;48.072;7.800;2024-01-30T03:17:16;100883.16;;;2.23;nan
63556;BME280;49700;48.072;7.800;2024-01-30T03:19:41;100886.66;;;2.22;nan
63556;BME280;49700;48.072;7.800;2024-01-30T03:22:07;100881.47;;;2.22;nan
63556;BME280;49700;48.072;7.800;2024-01-30T03:24:32;100883.16;;;2.23;nan
63556;BME280;49700;48.072;7.800;2024-01-30T03:26:57;100878.88;;;2.20;nan
63556;BME280;49700;48.072;7.800;2024-01-30T03:29:23;100885.78;;;2.18;nan
63556;BME280;49700;48.072;7.800;2024-01-30T03:31:49;100889.28;;;2.19;nan
63556;BME280;49700;48.072;7.800;2024-01-30T03:34:14;100885.78;;;2.20;nan
63556;BME280;49700;48.072;7.800;2024-01-30T03:36:39;100885.75;;;2.23;nan
63556;BME280;49700;48.072;7.800;2024-01-30T03:39:05;100893.47;;;2.29;nan
63556;BME280;49700;48.072;7.800;2024-01-30T03:41:31;100888.31;;;2.26;nan
63556;BME280;49700;48.072;7.800;2024-01-30T03:43:57;100891.78;;;2.24;nan
63556;BME280;49700;48.072;7.800;2024-01-30T03:46:22;100883.22;;;2.17;nan
63556;BME280;49700;48.072;7.800;2024-01-30T03:48:48;100894.47;;;2.13;nan
63556;BME280;49700;48.072;7.800;2024-01-30T03:51:13;100897.13;;;2.07;nan
63556;BME280;49700;48.072;7.800;2024-01-30T03:53:40;100894.63;;;1.96;nan
63556;BME280;49700;48.072;7.800;2024-01-30T03:56:07;100891.22;;;1.88;nan
63556;BME280;49700;48.072;7.800;2024-01-30T03:58:32;100894.72;;;1.84;nan
63556;BME280;49700;48.072;7.800;2024-01-30T04:00:58;100890.44;;;1.78;nan
63556;BME280;49700;48.072;7.800;2024-01-30T04:03:23;100904.28;;;1.74;nan
63556;BME280;49700;48.072;7.800;2024-01-30T04:05:51;100897.38;;;1.74;nan
63556;BME280;49700;48.072;7.800;2024-01-30T04:08:16;100890.44;;;1.78;nan
63556;BME280;49700;48.072;7.800;2024-01-30T04:10:42;100887.84;;;1.81;nan
63556;BME280;49700;48.072;7.800;2024-01-30T04:13:07;100904.22;;;1.83;nan
63556;BME280;49700;48.072;7.800;2024-01-30T04:15:33;100906.78;;;1.86;nan
63556;BME280;49700;48.072;7.800;2024-01-30T04:17:58;100910.25;;;1.87;nan
63556;BME280;49700;48.072;7.800;2024-01-30T04:20:26;100919.72;;;1.88;nan
63556;BME280;49700;48.072;7.800;2024-01-30T04:22:52;100917.13;;;1.86;nan
63556;BME280;49700;48.072;7.800;2024-01-30T04:25:18;100918.03;;;1.85;nan
63556;BME280;49700;48.072;7.800;2024-01-30T04:27:43;100911.97;;;1.86;nan
63556;BME280;49700;48.072;7.800;2024-01-30T04:30:09;100916.28;;;1.87;nan
63556;BME280;49700;48.072;7.800;2024-01-30T04:32:35;100919.72;;;1.89;nan
63556;BME280;49700;48.072;7.800;2024-01-30T04:35:01;100912.81;;;1.90;nan
63556;BME280;49700;48.072;7.800;2024-01-30T04:37:26;100917.13;;;1.91;nan
63556;BME280;49700;48.072;7.800;2024-01-30T04:39:54;100920.56;;;1.93;nan
63556;BME280;49700;48.072;7.800;2024-01-30T04:42:20;100922.28;;;1.95;nan
63556;BME280;49700;48.072;7.800;2024-01-30T04:44:45;100929.16;;;1.96;nan
63556;BME280;49700;48.072;7.800;2024-01-30T04:47:10;100924.84;;;1.98;nan
63556;BME280;49700;48.072;7.800;2024-01-30T04:49:40;100926.53;;;1.99;nan
63556;BME280;49700;48.072;7.800;2024-01-30T04:52:06;100923.09;;;2.01;nan
63556;BME280;49700;48.072;7.800;2024-01-30T04:54:32;100915.34;;;2.01;nan
63556;BME280;49700;48.072;7.800;2024-01-30T04:56:58;100927.41;;;2.02;nan
63556;BME280;49700;48.072;7.800;2024-01-30T04:59:23;100933.44;;;2.04;nan
63556;BME280;49700;48.072;7.800;2024-01-30T05:01:49;100932.56;;;2.05;nan
63556;BME280;49700;48.072;7.800;2024-01-30T05:04:14;100933.44;;;2.04;nan
63556;BME280;49700;48.072;7.800;2024-01-30T05:06:40;100924.78;;;2.05;nan
63556;BME280;49700;48.072;7.800;2024-01-30T05:09:05;100934.31;;;2.06;nan
63556;BME280;49700;48.072;7.800;2024-01-30T05:11:31;100930.81;;;2.07;nan
63556;BME280;49700;48.072;7.800;2024-01-30T05:13:56;100924.75;;;2.08;nan
63556;BME280;49700;48.072;7.800;2024-01-30T05:16:22;100930.81;;;2.11;nan
63556;BME280;49700;48.072;7.800;2024-01-30T05:18:48;100936.84;;;2.12;nan
63556;BME280;49700;48.072;7.800;2024-01-30T05:21:13;100936.84;;;2.12;nan
63556;BME280;49700;48.072;7.800;2024-01-30T05:23:39;100929.91;;;2.14;nan
63556;BME280;49700;48.072;7.800;2024-01-30T05:26:07;100931.63;;;2.15;nan
63556;BME280;49700;48.072;7.800;2024-01-30T05:28:33;100930.75;;;2.16;nan
63556;BME280;49700;48.072;7.800;2024-01-30T05:31:00;100937.63;;;2.20;nan
63556;BME280;49700;48.072;7.800;2024-01-30T05:33:26;100927.25;;;2.20;nan
63556;BME280;49700;48.072;7.800;2024-01-30T05:35:51;100934.16;;;2.21;nan
63556;BME280;49700;48.072;7.800;2024-01-30T05:54:29;100937.53;;;2.29;nan
63556;BME280;49700;48.072;7.800;2024-01-30T05:56:54;100931.47;;;2.33;nan
63556;BME280;49700;48.072;7.800;2024-01-30T05:59:20;100940.97;;;2.36;nan
63556;BME280;49700;48.072;7.800;2024-01-30T06:01:46;100928.84;;;2.38;nan
63556;BME280;49700;48.072;7.800;2024-01-30T06:04:13;100943.53;;;2.37;nan
63556;BME280;49700;48.072;7.800;2024-01-30T06:06:38;100941.81;;;2.36;nan
63556;BME280;49700;48.072;7.800;2024-01-30T06:09:04;100938.38;;;2.34;nan
63556;BME280;49700;48.072;7.800;2024-01-30T06:11:29;100933.22;;;2.33;nan
63556;BME280;49700;48.072;7.800;2024-01-30T06:13:54;100939.25;;;2.33;nan
63556;BME280;49700;48.072;7.800;2024-01-30T06:16:20;100942.72;;;2.31;nan
63556;BME280;49700;48.072;7.800;2024-01-30T06:18:48;100938.44;;;2.28;nan
63556;BME280;49700;48.072;7.800;2024-01-30T06:21:13;100948.84;;;2.25;nan
63556;BME280;49700;48.072;7.800;2024-01-30T06:23:46;100946.25;;;2.24;nan
63556;BME280;49700;48.072;7.800;2024-01-30T06:26:12;100943.66;;;2.25;nan
63556;BME280;49700;48.072;7.800;2024-01-30T06:28:37;100946.22;;;2.27;nan
63556;BME280;49700;48.072;7.800;2024-01-30T06:31:03;100943.63;;;2.28;nan
63556;BME280;49700;48.072;7.800;2024-01-30T06:33:28;100942.72;;;2.29;nan
63556;BME280;49700;48.072;7.800;2024-01-30T06:35:54;100945.31;;;2.31;nan
63556;BME280;49700;48.072;7.800;2024-01-30T06:38:19;100939.28;;;2.30;nan
63556;BME280;49700;48.072;7.800;2024-01-30T06:40:44;100942.72;;;2.31;nan
63556;BME280;49700;48.072;7.800;2024-01-30T06:43:10;100940.13;;;2.29;nan
63556;BME280;49700;48.072;7.800;2024-01-30T06:45:37;100948.84;;;2.25;nan
63556;BME280;49700;48.072;7.800;2024-01-30T06:48:05;100947.09;;;2.24;nan
63556;BME280;49700;48.072;7.800;2024-01-30T06:50:31;100948.84;;;2.25;nan
63556;BME280;49700;48.072;7.800;2024-01-30T06:52:57;100942.75;;;2.26;nan
63556;BME280;49700;48.072;7.800;2024-01-30T06:55:22;100949.66;;;2.29;nan
63556;BME280;49700;48.072;7.800;2024-01-30T06:57:47;100946.19;;;2.31;nan
63556;BME280;49700;48.072;7.800;2024-01-30T07:00:18;100947.03;;;2.33;nan
63556;BME280;49700;48.072;7.800;2024-01-30T07:02:45;100950.50;;;2.32;nan
63556;BME280;49700;48.072;7.800;2024-01-30T07:05:10;100951.34;;;2.36;nan
63556;BME280;49700;48.072;7.800;2024-01-30T07:07:35;100953.00;;;2.40;nan
63556;BME280;49700;48.072;7.800;2024-01-30T07:10:01;100946.94;;;2.42;nan
63556;BME280;49700;48.072;7.800;2024-01-30T07:12:31;100946.91;;;2.49;nan
63556;BME280;49700;48.072;7.800;2024-01-30T07:14:56;100948.59;;;2.53;nan
63556;BME280;49700;48.072;7.800;2024-01-30T07:17:21;100949.38;;;2.61;nan
63556;BME280;49700;48.072;7.800;2024-01-30T07:19:47;100949.31;;;2.70;nan
63556;BME280;49700;48.072;7.800;2024-01-30T07:22:12;100954.44;;;2.75;nan
63556;BME280;49700;48.072;7.800;2024-01-30T07:24:42;100959.63;;;2.76;nan
63556;BME280;49700;48.072;7.800;2024-01-30T07:27:09;100959.63;;;2.76;nan
63556;BME280;49700;48.072;7.800;2024-01-30T07:29:35;100955.31;;;2.72;nan
63556;BME280;49700;48.072;7.800;2024-01-30T07:32:00;100957.91;;;2.72;nan
63556;BME280;49700;48.072;7.800;2024-01-30T07:34:26;100948.38;;;2.74;nan
63556;BME280;49700;48.072;7.800;2024-01-30T07:36:52;100948.34;;;2.79;nan
63556;BME280;49700;48.072;7.800;2024-01-30T07:39:20;100961.22;;;2.88;nan
63556;BME280;49700;48.072;7.800;2024-01-30T07:41:48;100958.47;;;3.03;nan
63556;BME280;49700;48.072;7.800;2024-01-30T07:44:14;100958.91;;;3.39;nan
63556;BME280;49700;48.072;7.800;2024-01-30T07:46:39;100963.34;;;3.96;nan
63556;BME280;49700;48.072;7.800;2024-01-30T07:49:04;100952.78;;;4.59;nan
63556;BME280;49700;48.072;7.800;2024-01-30T07:51:30;100959.41;;;5.24;nan
63556;BME280;49700;48.072;7.800;2024-01-30T07:53:57;100951.25;;;5.80;nan
63556;BME280;49700;48.072;7.800;2024-01-30T07:56:23;100959.72;;;6.28;nan
63556;BME280;49700;48.072;7.800;2024-01-30T07:58:48;100951.81;;;6.67;nan
63556;BME280;49700;48.072;7.800;2024-01-30T08:01:15;100951.81;;;6.98;nan
63556;BME280;49700;48.072;7.800;2024-01-30T08:03:41;100952.00;;;7.23;nan
63556;BME280;49700;48.072;7.800;2024-01-30T08:06:07;100958.44;;;7.43;nan
63556;BME280;49700;48.072;7.800;2024-01-30T08:08:32;100958.13;;;7.53;nan
63556;BME280;49700;48.072;7.800;2024-01-30T08:10:58;100953.78;;;7.52;nan
63556;BME280;49700;48.072;7.800;2024-01-30T08:13:23;100954.00;;;7.45;nan
63556;BME280;49700;48.072;7.800;2024-01-30T08:15:49;100961.19;;;7.37;nan
63556;BME280;49700;48.072;7.800;2024-01-30T08:18:14;100951.88;;;7.28;nan
63556;BME280;49700;48.072;7.800;2024-01-30T08:20:39;100948.50;;;7.24;nan
63556;BME280;49700;48.072;7.800;2024-01-30T08:23:07;100951.16;;;7.23;nan
63556;BME280;49700;48.072;7.800;2024-01-30T08:25:33;100950.28;;;7.22;nan
63556;BME280;49700;48.072;7.800;2024-01-30T08:27:58;100950.13;;;7.28;nan
63556;BME280;49700;48.072;7.800;2024-01-30T08:30:25;100948.66;;;7.48;nan
63556;BME280;49700;48.072;7.800;2024-01-30T08:32:50;100950.66;;;7.69;nan
63556;BME280;49700;48.072;7.800;2024-01-30T08:35:15;100944.59;;;7.97;nan
63556;BME280;49700;48.072;7.800;2024-01-30T08:37:42;100940.06;;;8.29;nan
63556;BME280;49700;48.072;7.800;2024-01-30T08:40:08;100935.78;;;8.54;nan
63556;BME280;49700;48.072;7.800;2024-01-30T08:42:36;100929.91;;;8.73;nan
63556;BME280;49700;48.072;7.800;2024-01-30T08:45:02;100933.72;;;8.88;nan
63556;BME280;49700;48.072;7.800;2024-01-30T08:47:28;100930.63;;;9.01;nan
63556;BME280;49700;48.072;7.800;2024-01-30T08:49:53;100929.25;;;9.15;nan
63556;BME280;49700;48.072;7.800;2024-01-30T08:52:19;100937.53;;;9.27;nan
63556;BME280;49700;48.072;7.800;2024-01-30T08:54:47;100937.09;;;9.40;nan
63556;BME280;49700;48.072;7.800;2024-01-30T08:57:12;100944.56;;;9.50;nan
63556;BME280;49700;48.072;7.800;2024-01-30T08:59:37;100939.75;;;9.62;nan
63556;BME280;49700;48.072;7.800;2024-01-30T09:02:03;100942.00;;;9.71;nan
63556;BME280;49700;48.072;7.800;2024-01-30T09:04:29;100943.38;;;9.81;nan
63556;BME280;49700;48.072;7.800;2024-01-30T09:06:54;100925.56;;;9.89;nan
63556;BME280;49700;48.072;7.800;2024-01-30T09:09:20;100935.75;;;9.97;nan
63556;BME280;49700;48.072;7.800;2024-01-30T09:11:45;100927.63;;;10.03;nan
63556;BME280;49700;48.072;7.800;2024-01-30T09:14:11;100936.97;;;10.10;nan
63556;BME280;49700;48.072;7.800;2024-01-30T09:16:37;100940.91;;;10.20;nan
63556;BME280;49700;48.072;7.800;2024-01-30T09:19:02;100933.59;;;10.29;nan
63556;BME280;49700;48.072;7.800;2024-01-30T09:21:27;100935.03;;;10.37;nan
63556;BME280;49700;48.072;7.800;2024-01-30T09:24:03;100942.50;;;10.47;nan
63556;BME280;49700;48.072;7.800;2024-01-30T09:26:32;100940.28;;;10.58;nan
63556;BME280;49700;48.072;7.800;2024-01-30T09:28:57;100953.03;;;10.67;nan
63556;BME280;49700;48.072;7.800;2024-01-30T09:31:23;100960.53;;;10.76;nan
63556;BME280;49700;48.072;7.800;2024-01-30T09:33:48;100964.47;;;10.87;nan
63556;BME280;49700;48.072;7.800;2024-01-30T09:36:16;100972.09;;;10.93;nan
63556;BME280;49700;48.072;7.800;2024-01-30T09:38:43;100972.69;;;10.99;nan
63556;BME280;49700;48.072;7.800;2024-01-30T09:41:09;100982.13;;;11.03;nan
63556;BME280;49700;48.072;7.800;2024-01-30T09:43:38;100976.88;;;11.03;nan
63556;BME280;49700;48.072;7.800;2024-01-30T09:46:11;100985.63;;;11.04;nan
63556;BME280;49700;48.072;7.800;2024-01-30T09:48:40;100972.41;;;11.05;nan
63556;BME280;49700;48.072;7.800;2024-01-30T09:51:07;100981.84;;;11.10;nan
63556;BME280;49700;48.072;7.800;2024-01-30T09:53:33;100982.47;;;11.16;nan
63556;BME280;49700;48.072;7.800;2024-01-30T09:55:59;100987.38;;;11.24;nan
63556;BME280;49700;48.072;7.800;2024-01-30T09:58:25;100986.16;;;11.31;nan
63556;BME280;49700;48.072;7.800;2024-01-30T10:00:51;100984.94;;;11.40;nan
63556;BME280;49700;48.072;7.800;2024-01-30T10:03:18;100981.16;;;11.45;nan
63556;BME280;49700;48.072;7.800;2024-01-30T10:05:52;100978.25;;;11.51;nan
63556;BME280;49700;48.072;7.800;2024-01-30T10:08:18;100973.63;;;11.57;nan
63556;BME280;49700;48.072;7.800;2024-01-30T10:10:47;100977.91;;;11.59;nan
63556;BME280;49700;48.072;7.800;2024-01-30T10:13:13;100973.19;;;11.66;nan
63556;BME280;49700;48.072;7.800;2024-01-30T10:15:39;100970.22;;;11.73;nan
63556;BME280;49700;48.072;7.800;2024-01-30T10:18:05;100979.53;;;11.81;nan
63556;BME280;49700;48.072;7.800;2024-01-30T10:20:32;100964.25;;;11.89;nan
63556;BME280;49700;48.072;7.800;2024-01-30T10:22:58;100970.88;;;11.98;nan
63556;BME280;49700;48.072;7.800;2024-01-30T10:25:27;100974.19;;;12.01;nan
63556;BME280;49700;48.072;7.800;2024-01-30T10:27:53;100967.88;;;12.05;nan
63556;BME280;49700;48.072;7.800;2024-01-30T10:30:23;100966.72;;;12.11;nan
63556;BME280;49700;48.072;7.800;2024-01-30T10:32:49;100965.41;;;12.20;nan
63556;BME280;49700;48.072;7.800;2024-01-30T10:35:15;100964.03;;;12.30;nan
63556;BME280;49700;48.072;7.800;2024-01-30T10:37:43;100964.88;;;12.30;nan
63556;BME280;49700;48.072;7.800;2024-01-30T10:40:12;100952.41;;;12.34;nan
63556;BME280;49700;48.072;7.800;2024-01-30T10:42:42;100957.41;;;12.40;nan
63556;BME280;49700;48.072;7.800;2024-01-30T10:45:10;100960.66;;;12.45;nan
63556;BME280;49700;48.072;7.800;2024-01-30T10:47:40;100958.72;;;12.49;nan
63556;BME280;49700;48.072;7.800;2024-01-30T10:50:07;100956.59;;;12.55;nan
63556;BME280;49700;48.072;7.800;2024-01-30T10:52:41;100956.22;;;12.63;nan
63556;BME280;49700;48.072;7.800;2024-01-30T10:55:13;100950.50;;;12.72;nan
63556;BME280;49700;48.072;7.800;2024-01-30T10:57:40;100948.84;;;12.87;nan
63556;BME280;49700;48.072;7.800;2024-01-30T11:00:08;100946.22;;;13.04;nan
63556;BME280;49700;48.072;7.800;2024-01-30T11:02:45;100940.44;;;13.14;nan
63556;BME280;49700;48.072;7.800;2024-01-30T11:05:11;100940.25;;;13.17;nan
63556;BME280;49700;48.072;7.800;2024-01-30T11:07:39;100945.13;;;13.24;nan
63556;BME280;49700;48.072;7.800;2024-01-30T11:10:09;100942.38;;;13.27;nan
63556;BME280;49700;48.072;7.800;2024-01-30T11:12:47;100934.03;;;13.35;nan
63556;BME280;49700;48.072;7.800;2024-01-30T11:15:16;100942.41;;;13.43;nan
63556;BME280;49700;48.072;7.800;2024-01-30T11:20:19;100948.63;;;13.58;nan
63556;BME280;49700;48.072;7.800;2024-01-30T11:22:46;100946.75;;;13.60;nan
63556;BME280;49700;48.072;7.800;2024-01-30T11:25:16;100944.94;;;13.61;nan
63556;BME280;49700;48.072;7.800;2024-01-30T11:27:46;100932.94;;;13.55;nan
63556;BME280;49700;48.072;7.800;2024-01-30T11:32:58;100926.66;;;13.58;nan
63556;BME280;49700;48.072;7.800;2024-01-30T11:35:26;100924.84;;;13.58;nan
63556;BME280;49700;48.072;7.800;2024-01-30T11:37:52;100933.53;;;13.60;nan
63556;BME280;49700;48.072;7.800;2024-01-30T11:40:19;100933.53;;;13.60;nan
63556;BME280;49700;48.072;7.800;2024-01-30T11:42:45;100935.09;;;13.64;nan
63556;BME280;49700;48.072;7.800;2024-01-30T11:45:12;100932.47;;;13.64;nan
63556;BME280;49700;48.072;7.800;2024-01-30T11:47:38;100932.94;;;13.71;nan
63556;BME280;49700;48.072;7.800;2024-01-30T11:50:04;100922.56;;;13.84;nan
63556;BME280;49700;48.072;7.800;2024-01-30T11:52:33;100920.09;;;13.97;nan
63556;BME280;49700;48.072;7.800;2024-01-30T11:54:59;100922.97;;;14.08;nan
63556;BME280;49700;48.072;7.800;2024-01-30T11:57:27;100923.28;;;14.17;nan
63556;BME280;49700;48.072;7.800;2024-01-30T11:59:52;100925.59;;;14.24;nan
63556;BME280;49700;48.072;7.800;2024-01-30T12:02:17;100915.94;;;14.23;nan
63556;BME280;49700;48.072;7.800;2024-01-30T12:04:43;100923.19;;;14.19;nan
63556;BME280;49700;48.072;7.800;2024-01-30T12:07:08;100923.28;;;14.17;nan
63556;BME280;49700;48.072;7.800;2024-01-30T12:09:34;100918.28;;;14.13;nan
63556;BME280;49700;48.072;7.800;2024-01-30T12:12:02;100913.91;;;14.12;nan
63556;BME280;49700;48.072;7.800;2024-01-30T12:14:28;100914.94;;;14.09;nan
63556;BME280;49700;48.072;7.800;2024-01-30T12:16:54;100922.00;;;14.09;nan
63556;BME280;49700;48.072;7.800;2024-01-30T12:19:23;100923.16;;;14.05;nan
63556;BME280;49700;48.072;7.800;2024-01-30T12:21:55;100923.16;;;14.05;nan
63556;BME280;49700;48.072;7.800;2024-01-30T12:24:21;100921.41;;;14.04;nan
63556;BME280;49700;48.072;7.800;2024-01-30T12:26:47;100918.13;;;14.00;nan
63556;BME280;49700;48.072;7.800;2024-01-30T12:29:17;100923.31;;;14.02;nan
63556;BME280;49700;48.072;7.800;2024-01-30T12:31:43;100925.97;;;14.02;nan
63556;BME280;49700;48.072;7.800;2024-01-30T12:34:14;100918.19;;;13.99;nan
63556;BME280;49700;48.072;7.800;2024-01-30T12:36:42;100919.69;;;13.88;nan
63556;BME280;49700;48.072;7.800;2024-01-30T12:39:11;100920.88;;;13.83;nan
63556;BME280;49700;48.072;7.800;2024-01-30T12:41:39;100916.88;;;13.76;nan
63556;BME280;49700;48.072;7.800;2024-01-30T12:44:07;100920.44;;;13.75;nan
63556;BME280;49700;48.072;7.800;2024-01-30T12:46:34;100920.59;;;13.71;nan
63556;BME280;49700;48.072;7.800;2024-01-30T12:49:00;100918.06;;;13.70;nan
63556;BME280;49700;48.072;7.800;2024-01-30T12:51:25;100907.50;;;13.70;nan
63556;BME280;49700;48.072;7.800;2024-01-30T12:53:51;100906.47;;;13.72;nan
63556;BME280;49700;48.072;7.800;2024-01-30T12:56:16;100911.66;;;13.74;nan
63556;BME280;49700;48.072;7.800;2024-01-30T12:58:41;100907.31;;;13.73;nan
63556;BME280;49700;48.072;7.800;2024-01-30T13:01:08;100910.91;;;13.72;nan
63556;BME280;49700;48.072;7.800;2024-01-30T13:03:33;100909.19;;;13.71;nan
63556;BME280;49700;48.072;7.800;2024-01-30T13:06:02;100910.91;;;13.72;nan
63556;BME280;49700;48.072;7.800;2024-01-30T13:08:28;100906.47;;;13.72;nan
63556;BME280;49700;48.072;7.800;2024-01-30T13:10:53;100916.19;;;13.72;nan
63556;BME280;49700;48.072;7.800;2024-01-30T13:13:18;100908.41;;;13.69;nan
63556;BME280;49700;48.072;7.800;2024-01-30T13:15:44;100910.91;;;13.72;nan
63556;BME280;49700;48.072;7.800;2024-01-30T13:18:10;100914.03;;;13.79;nan
63556;BME280;49700;48.072;7.800;2024-01-30T13:20:35;100912.25;;;13.79;nan
63556;BME280;49700;48.072;7.800;2024-01-30T13:23:00;100912.94;;;13.83;nan
63556;BME280;49700;48.072;7.800;2024-01-30T13:25:26;100906.78;;;13.82;nan
63556;BME280;49700;48.072;7.800;2024-01-30T13:27:51;100914.81;;;13.81;nan
63556;BME280;49700;48.072;7.800;2024-01-30T13:30:18;100905.28;;;13.78;nan
63556;BME280;49700;48.072;7.800;2024-01-30T13:32:47;100907.16;;;13.76;nan